Time;durP1;ratioP1;P1;durP2;ratioP2;P2;SDS_P1;SDS_P2;PMS_P1;PMS_P2;Temp;Humidity;BMP_temperature;BMP_pressure;BME280_temperature;BME280_humidity;BME280_pressure;Samples;Min_cycle;Max_cycle;Signal;HPM_P1;HPM_P2
2023/09/17 00:00:09;;;;;;;19.70;19.00;;;19.70;99.90;;;;;;5054097;28;20204;-63
2023/09/17 00:02:36;;;;;;;22.43;21.63;;;19.60;99.90;;;;;;5053695;28;20210;-63
2023/09/17 00:05:04;;;;;;;21.23;20.43;;;19.70;99.90;;;;;;5053272;28;20662;-63
2023/09/17 00:07:31;;;;;;;21.77;20.97;;;19.60;99.90;;;;;;5053541;28;20670;-63
2023/09/17 00:09:58;;;;;;;21.47;20.67;;;19.50;99.90;;;;;;5070602;28;20247;-63
2023/09/17 00:12:25;;;;;;;21.83;21.07;;;19.50;99.90;;;;;;5053546;28;20204;-63
2023/09/17 00:14:53;;;;;;;23.40;22.60;;;19.50;99.90;;;;;;5068771;28;20202;-63
2023/09/17 00:17:20;;;;;;;25.00;24.10;;;19.40;99.90;;;;;;5073226;28;20209;-63
2023/09/17 00:19:47;;;;;;;21.40;20.70;;;19.40;99.90;;;;;;5058365;28;20306;-62
2023/09/17 00:22:14;;;;;;;30.80;29.67;;;19.40;99.90;;;;;;5055979;28;20204;-63
2023/09/17 00:24:41;;;;;;;22.73;21.93;;;19.40;99.90;;;;;;5067001;28;20760;-63
2023/09/17 00:27:09;;;;;;;20.57;19.87;;;19.40;99.90;;;;;;5074448;28;20208;-64
2023/09/17 00:29:36;;;;;;;23.60;22.80;;;19.40;99.90;;;;;;5075591;28;20227;-63
2023/09/17 00:32:05;;;;;;;22.43;21.63;;;19.30;99.90;;;;;;5060306;28;20226;-62
2023/09/17 00:34:32;;;;;;;22.47;21.67;;;19.30;99.90;;;;;;5062543;28;20202;-63
2023/09/17 00:37:00;;;;;;;23.17;22.37;;;19.20;99.90;;;;;;5068209;28;20207;-63
2023/09/17 00:39:27;;;;;;;27.47;26.47;;;19.20;99.90;;;;;;5068976;28;20230;-64
2023/09/17 00:41:54;;;;;;;30.30;29.10;;;19.20;99.90;;;;;;5067625;28;20215;-64
2023/09/17 00:44:21;;;;;;;26.93;25.80;;;19.20;99.90;;;;;;5069562;28;20219;-62
2023/09/17 00:46:49;;;;;;;22.30;21.50;;;19.30;99.90;;;;;;5068142;28;20697;-63
2023/09/17 00:49:17;;;;;;;22.43;21.63;;;19.40;99.90;;;;;;5066781;28;20234;-63
2023/09/17 00:51:45;;;;;;;23.93;23.10;;;19.40;99.90;;;;;;5067973;28;20294;-63
2023/09/17 00:54:14;;;;;;;23.17;22.37;;;19.40;99.90;;;;;;5065882;28;20215;-62
2023/09/17 00:56:41;;;;;;;47.53;45.23;;;19.40;99.90;;;;;;5067686;28;20207;-64
2023/09/17 00:59:08;;;;;;;30.50;29.30;;;19.40;99.90;;;;;;5069273;28;20318;-63
2023/09/17 01:01:36;;;;;;;29.20;28.10;;;19.40;99.90;;;;;;5067723;28;20199;-64
2023/09/17 01:04:03;;;;;;;22.53;21.73;;;19.50;99.90;;;;;;5065224;28;20225;-64
2023/09/17 01:06:31;;;;;;;25.97;25.07;;;19.40;99.90;;;;;;5067893;28;20232;-63
2023/09/17 01:08:59;;;;;;;23.43;22.63;;;19.50;99.90;;;;;;5069419;28;20229;-63
2023/09/17 01:11:26;;;;;;;22.67;21.87;;;19.50;99.90;;;;;;5064400;28;20286;-63
2023/09/17 01:14:07;;;;;;;23.43;22.63;;;19.40;99.90;;;;;;5066029;28;20290;-63
2023/09/17 01:16:34;;;;;;;31.50;30.20;;;19.40;99.90;;;;;;5063020;28;20249;-63
2023/09/17 01:19:03;;;;;;;23.33;22.53;;;19.40;99.90;;;;;;5065781;28;20227;-63
2023/09/17 01:21:39;;;;;;;30.47;29.27;;;19.30;99.90;;;;;;5068751;28;20227;-63
2023/09/17 01:24:21;;;;;;;29.07;27.97;;;19.20;99.90;;;;;;5066574;28;20226;-62
2023/09/17 01:26:59;;;;;;;25.70;24.80;;;19.20;99.90;;;;;;5067936;28;20590;-62
2023/09/17 01:29:26;;;;;;;25.60;24.70;;;19.30;99.90;;;;;;5058195;28;20641;-63
2023/09/17 01:31:55;;;;;;;24.97;24.07;;;19.10;99.90;;;;;;5071518;28;20276;-63
2023/09/17 01:34:23;;;;;;;27.77;26.77;;;19.00;99.90;;;;;;5077449;28;20196;-63
2023/09/17 01:36:52;;;;;;;24.53;23.73;;;19.00;99.90;;;;;;5072223;28;20580;-63
2023/09/17 01:39:25;;;;;;;23.90;23.10;;;19.00;99.90;;;;;;5069803;28;20228;-64
2023/09/17 01:41:52;;;;;;;25.53;24.63;;;19.00;99.90;;;;;;5066046;28;20298;-63
2023/09/17 01:44:22;;;;;;;21.90;21.10;;;19.00;99.90;;;;;;5065449;28;20216;-62
2023/09/17 01:46:49;;;;;;;23.83;23.03;;;18.90;99.90;;;;;;5066120;28;20633;-63
2023/09/17 01:49:17;;;;;;;22.77;21.97;;;18.90;99.90;;;;;;5068364;28;20249;-62
2023/09/17 01:51:45;;;;;;;23.30;22.50;;;18.90;99.90;;;;;;5070666;28;20195;-63
2023/09/17 01:54:12;;;;;;;25.27;24.37;;;18.90;99.90;;;;;;5070622;28;20203;-64
2023/09/17 01:56:38;;;;;;;23.97;23.17;;;19.00;99.90;;;;;;5070712;28;20291;-62
2023/09/17 01:59:06;;;;;;;23.03;22.23;;;18.90;99.90;;;;;;5070140;28;20282;-63
2023/09/17 02:01:34;;;;;;;26.40;25.50;;;19.00;99.90;;;;;;5070509;28;20618;-64
2023/09/17 02:04:01;;;;;;;22.80;22.00;;;19.00;99.90;;;;;;5069951;28;20211;-64
2023/09/17 02:06:28;;;;;;;27.40;26.40;;;19.00;99.90;;;;;;5064731;28;20203;-62
2023/09/17 02:08:55;;;;;;;23.70;22.90;;;19.00;99.90;;;;;;5070489;28;20277;-63
2023/09/17 02:11:22;;;;;;;22.93;22.13;;;19.00;99.90;;;;;;5070426;28;20309;-63
2023/09/17 02:13:49;;;;;;;27.67;26.60;;;18.90;99.90;;;;;;5074878;28;20381;-63
2023/09/17 02:16:15;;;;;;;22.57;21.77;;;18.90;99.90;;;;;;5079701;28;20203;-63
2023/09/17 02:18:44;;;;;;;24.87;23.97;;;19.00;99.90;;;;;;5081593;28;20223;-63
2023/09/17 02:21:10;;;;;;;24.07;23.17;;;18.90;99.90;;;;;;5083800;28;20268;-63
2023/09/17 02:23:37;;;;;;;23.20;22.40;;;18.90;99.90;;;;;;5080935;28;20583;-62
2023/09/17 02:26:04;;;;;;;22.63;21.83;;;18.80;99.90;;;;;;5081193;28;20227;-63
2023/09/17 02:28:31;;;;;;;27.47;26.47;;;18.90;99.90;;;;;;5079212;28;20322;-63
2023/09/17 02:30:59;;;;;;;23.30;22.50;;;18.90;99.90;;;;;;5076551;28;20203;-62
2023/09/17 02:33:26;;;;;;;22.03;21.23;;;18.90;99.90;;;;;;5077699;28;20209;-62
2023/09/17 02:35:54;;;;;;;21.87;21.07;;;18.90;99.90;;;;;;5076112;28;20209;-64
2023/09/17 02:38:21;;;;;;;26.67;25.67;;;18.80;99.90;;;;;;5073986;28;20314;-64
2023/09/17 02:40:48;;;;;;;23.57;22.77;;;18.70;99.90;;;;;;5074038;28;20211;-63
2023/09/17 02:43:14;;;;;;;21.30;20.60;;;18.60;99.90;;;;;;5076658;28;20203;-63
2023/09/17 02:45:41;;;;;;;22.50;21.70;;;18.60;99.90;;;;;;5076428;28;20219;-64
2023/09/17 02:48:08;;;;;;;23.57;22.77;;;18.60;99.90;;;;;;5073937;28;20746;-63
2023/09/17 02:50:35;;;;;;;22.23;21.43;;;18.50;99.90;;;;;;5073742;28;20685;-63
2023/09/17 02:53:04;;;;;;;23.27;22.47;;;18.50;99.90;;;;;;5073705;28;20203;-63
2023/09/17 02:55:32;;;;;;;23.47;22.67;;;18.50;99.90;;;;;;5073369;28;20207;-63
2023/09/17 02:58:01;;;;;;;23.70;22.90;;;18.60;99.90;;;;;;5074446;28;20239;-63
2023/09/17 03:00:27;;;;;;;22.50;21.70;;;18.60;99.90;;;;;;5074394;28;20199;-63
2023/09/17 03:02:55;;;;;;;21.37;20.57;;;18.60;99.90;;;;;;5073360;28;20204;-64
2023/09/17 03:05:22;;;;;;;26.43;25.47;;;18.60;99.90;;;;;;5073191;28;20396;-62
2023/09/17 03:07:49;;;;;;;22.70;21.90;;;18.60;99.90;;;;;;5073241;28;20206;-62
2023/09/17 03:10:18;;;;;;;25.07;24.17;;;18.60;99.90;;;;;;5072866;28;20207;-62
2023/09/17 03:12:47;;;;;;;24.93;24.03;;;18.60;99.90;;;;;;5073359;28;20207;-63
2023/09/17 03:15:13;;;;;;;26.93;25.93;;;18.60;99.90;;;;;;5071484;28;20218;-62
2023/09/17 03:17:41;;;;;;;22.47;21.67;;;18.60;99.90;;;;;;5073245;28;20282;-63
2023/09/17 03:20:16;;;;;;;24.53;23.67;;;18.60;99.90;;;;;;5073229;28;20203;-63
2023/09/17 03:22:43;;;;;;;23.07;22.27;;;18.60;99.90;;;;;;5073293;28;20226;-63
2023/09/17 03:25:11;;;;;;;27.63;26.63;;;18.60;99.90;;;;;;5072580;28;20225;-62
2023/09/17 03:27:40;;;;;;;22.50;21.70;;;18.60;99.90;;;;;;5072962;28;20221;-64
2023/09/17 03:30:08;;;;;;;22.07;21.27;;;18.60;99.90;;;;;;5072619;28;20211;-64
2023/09/17 03:32:35;;;;;;;35.80;34.23;;;18.50;99.90;;;;;;5072928;28;20730;-64
2023/09/17 03:35:03;;;;;;;27.20;26.20;;;18.50;99.90;;;;;;5072574;28;20205;-63
2023/09/17 03:37:30;;;;;;;22.70;21.90;;;18.40;99.90;;;;;;5072807;28;20203;-63
2023/09/17 03:40:10;;;;;;;23.40;22.60;;;18.40;99.90;;;;;;5072603;28;20234;-63
2023/09/17 03:42:39;;;;;;;24.03;23.23;;;18.40;99.90;;;;;;5067625;28;20592;-64
2023/09/17 03:45:09;;;;;;;21.17;20.47;;;18.40;99.90;;;;;;5072222;28;20310;-64
2023/09/17 03:47:36;;;;;;;24.30;23.47;;;18.30;99.90;;;;;;5068149;28;20203;-63
2023/09/17 03:50:05;;;;;;;26.40;25.40;;;18.30;99.90;;;;;;5073016;28;20230;-63
2023/09/17 03:52:33;;;;;;;22.93;22.13;;;18.40;99.90;;;;;;5069381;28;20737;-63
2023/09/17 03:55:01;;;;;;;23.53;22.73;;;18.40;99.90;;;;;;5077120;28;20303;-63
2023/09/17 03:57:29;;;;;;;22.63;21.83;;;18.40;99.90;;;;;;5076119;28;20211;-63
2023/09/17 03:59:57;;;;;;;23.63;22.83;;;18.40;99.90;;;;;;5076103;28;20231;-62
2023/09/17 04:02:24;;;;;;;22.93;22.13;;;18.30;99.90;;;;;;5071567;28;20326;-63
2023/09/17 04:04:51;;;;;;;24.47;23.63;;;18.30;99.90;;;;;;5068281;28;20214;-63
2023/09/17 04:07:18;;;;;;;24.70;23.87;;;18.30;99.90;;;;;;5069143;28;20213;-63
2023/09/17 04:09:45;;;;;;;23.93;23.13;;;18.30;99.90;;;;;;5066939;28;20234;-65
2023/09/17 04:12:12;;;;;;;25.80;24.90;;;18.40;99.90;;;;;;5067839;28;20210;-63
2023/09/17 04:14:39;;;;;;;24.70;23.83;;;18.40;99.90;;;;;;5066542;28;20200;-64
2023/09/17 04:17:07;;;;;;;23.07;22.27;;;18.40;99.90;;;;;;5068015;28;20585;-63
2023/09/17 04:19:34;;;;;;;20.40;19.70;;;18.40;99.90;;;;;;5065780;28;20230;-62
2023/09/17 04:22:02;;;;;;;25.03;24.13;;;18.50;99.90;;;;;;5066542;28;20203;-63
2023/09/17 04:24:29;;;;;;;21.83;21.03;;;18.50;99.90;;;;;;5065612;28;20211;-62
2023/09/17 04:26:56;;;;;;;26.20;25.30;;;18.50;99.90;;;;;;5065920;28;20238;-63
2023/09/17 04:29:23;;;;;;;22.80;22.00;;;18.50;99.90;;;;;;5070165;28;20231;-61
2023/09/17 04:31:52;;;;;;;23.57;22.73;;;18.50;99.90;;;;;;5066978;28;20226;-63
2023/09/17 04:34:20;;;;;;;27.40;26.40;;;18.50;99.90;;;;;;5064001;28;20211;-63
2023/09/17 04:36:47;;;;;;;30.47;29.37;;;18.40;99.90;;;;;;5066637;28;20208;-62
2023/09/17 04:39:15;;;;;;;28.63;27.57;;;18.30;99.90;;;;;;5072283;28;20224;-64
2023/09/17 04:41:42;;;;;;;27.17;26.20;;;18.30;99.90;;;;;;5070063;28;20195;-63
2023/09/17 04:44:10;;;;;;;31.37;30.23;;;18.30;99.90;;;;;;5065335;28;20208;-62
2023/09/17 04:46:39;;;;;;;24.70;23.80;;;18.20;99.90;;;;;;5066067;28;20685;-64
2023/09/17 04:49:06;;;;;;;23.47;22.67;;;18.10;99.90;;;;;;5062856;28;20230;-63
2023/09/17 04:51:35;;;;;;;23.60;22.80;;;18.10;99.90;;;;;;5065475;28;20294;-64
2023/09/17 04:54:02;;;;;;;24.67;23.80;;;18.20;99.90;;;;;;5067553;28;20649;-62
2023/09/17 04:56:29;;;;;;;25.27;24.37;;;18.10;99.90;;;;;;5065398;28;20777;-63
2023/09/17 04:58:57;;;;;;;22.97;22.17;;;18.10;99.90;;;;;;5063420;28;20273;-63
2023/09/17 05:01:24;;;;;;;22.50;21.70;;;18.10;99.90;;;;;;5063466;28;20613;-63
2023/09/17 05:03:51;;;;;;;26.77;25.83;;;18.20;99.90;;;;;;5064066;28;20217;-63
2023/09/17 05:06:17;;;;;;;24.03;23.20;;;18.20;99.90;;;;;;5062120;28;20231;-64
2023/09/17 05:08:46;;;;;;;22.83;22.03;;;18.30;99.90;;;;;;5069180;28;20317;-62
2023/09/17 05:11:12;;;;;;;28.67;27.57;;;18.30;99.90;;;;;;5067731;28;20586;-63
2023/09/17 05:13:39;;;;;;;26.00;25.10;;;18.30;99.90;;;;;;5066991;28;20199;-62
2023/09/17 05:16:06;;;;;;;21.90;21.13;;;18.30;99.90;;;;;;5061178;28;20666;-63
2023/09/17 05:18:33;;;;;;;23.73;22.93;;;18.30;99.90;;;;;;5068880;28;20310;-63
2023/09/17 05:21:00;;;;;;;26.27;25.37;;;18.30;99.90;;;;;;5062063;28;20215;-64
2023/09/17 05:23:26;;;;;;;23.70;22.83;;;18.30;99.90;;;;;;5062389;28;20677;-63
2023/09/17 05:25:56;;;;;;;22.17;21.37;;;18.30;99.90;;;;;;5065783;28;20219;-63
2023/09/17 05:28:23;;;;;;;27.57;26.60;;;18.30;99.90;;;;;;5066789;28;20227;-63
2023/09/17 05:30:50;;;;;;;27.97;26.97;;;18.20;99.90;;;;;;5066966;28;20275;-63
2023/09/17 05:33:17;;;;;;;26.70;25.80;;;18.20;99.90;;;;;;5064670;28;20331;-63
2023/09/17 05:35:44;;;;;;;25.13;24.23;;;18.20;99.90;;;;;;5069581;28;20268;-62
2023/09/17 05:38:11;;;;;;;25.60;24.70;;;18.20;99.90;;;;;;5068434;28;20709;-63
2023/09/17 05:40:37;;;;;;;29.63;28.53;;;18.20;99.90;;;;;;5062778;28;20202;-65
2023/09/17 05:43:06;;;;;;;25.63;24.70;;;18.20;99.90;;;;;;5060926;28;20229;-64
2023/09/17 05:45:32;;;;;;;23.13;22.33;;;18.20;99.90;;;;;;5063034;28;20299;-64
2023/09/17 05:47:59;;;;;;;25.43;24.53;;;18.20;99.90;;;;;;5061549;28;20209;-62
2023/09/17 05:50:26;;;;;;;26.73;25.77;;;18.20;99.90;;;;;;5061807;28;20317;-63
2023/09/17 05:52:53;;;;;;;28.27;27.27;;;18.30;99.90;;;;;;5062573;28;20213;-63
2023/09/17 05:55:20;;;;;;;43.33;41.53;;;18.30;99.90;;;;;;5060578;28;20207;-63
2023/09/17 05:57:46;;;;;;;33.97;32.67;;;18.30;99.90;;;;;;5062639;28;20668;-63
2023/09/17 06:00:16;;;;;;;26.27;25.37;;;18.30;99.90;;;;;;5061727;28;20230;-62
2023/09/17 06:02:43;;;;;;;28.60;27.60;;;18.30;99.90;;;;;;5063028;28;20812;-63
2023/09/17 06:05:10;;;;;;;25.73;24.83;;;18.40;99.90;;;;;;5062572;28;20206;-64
2023/09/17 06:07:37;;;;;;;30.77;29.67;;;18.40;99.90;;;;;;5066826;28;20229;-63
2023/09/17 06:10:05;;;;;;;32.10;30.90;;;18.40;99.90;;;;;;5070368;28;20239;-61
2023/09/17 06:12:32;;;;;;;38.70;37.17;;;18.50;99.90;;;;;;5070334;28;20211;-63
2023/09/17 06:14:59;;;;;;;39.47;37.97;;;18.60;99.90;;;;;;5068610;28;20210;-63
2023/09/17 06:17:27;;;;;;;32.60;31.43;;;18.60;99.90;;;;;;5065375;28;20223;-62
2023/09/17 06:19:54;;;;;;;38.13;36.73;;;18.70;99.90;;;;;;5066742;28;20594;-62
2023/09/17 06:22:21;;;;;;;29.23;28.20;;;18.80;99.90;;;;;;5070427;28;20286;-62
2023/09/17 06:24:47;;;;;;;24.93;24.03;;;18.90;99.90;;;;;;5066275;28;20676;-62
2023/09/17 06:27:14;;;;;;;30.03;28.93;;;18.90;99.90;;;;;;5063157;28;20246;-64
2023/09/17 06:29:40;;;;;;;22.83;22.03;;;19.00;99.90;;;;;;5066642;28;20242;-63
2023/09/17 06:32:08;;;;;;;23.30;22.50;;;19.10;99.90;;;;;;5063584;28;20828;-63
2023/09/17 06:34:36;;;;;;;20.57;19.83;;;19.20;99.90;;;;;;5065517;28;20216;-63
2023/09/17 06:37:04;;;;;;;19.40;18.73;;;19.30;99.90;;;;;;5065321;28;20205;-62
2023/09/17 06:39:31;;;;;;;20.33;19.63;;;19.30;99.90;;;;;;5072911;28;20222;-63
2023/09/17 06:41:58;;;;;;;24.73;23.83;;;19.40;99.90;;;;;;5069414;28;20210;-64
2023/09/17 06:44:25;;;;;;;22.03;21.30;;;19.50;99.90;;;;;;5064066;28;20203;-63
2023/09/17 06:46:52;;;;;;;20.83;20.10;;;19.60;99.90;;;;;;5065284;28;20225;-62
2023/09/17 06:49:19;;;;;;;18.40;17.63;;;19.70;99.90;;;;;;5066921;28;20226;-62
2023/09/17 06:51:48;;;;;;;17.90;17.30;;;19.70;99.90;;;;;;5081655;28;20204;-62
2023/09/17 06:54:15;;;;;;;19.50;18.80;;;19.90;99.90;;;;;;5074026;28;20291;-62
2023/09/17 06:56:42;;;;;;;20.37;19.67;;;20.00;99.90;;;;;;5073244;28;20223;-61
2023/09/17 06:59:08;;;;;;;16.43;15.83;;;20.10;99.90;;;;;;5064818;28;20242;-64
2023/09/17 07:01:36;;;;;;;14.70;14.20;;;20.20;99.90;;;;;;5067178;28;20207;-64
2023/09/17 07:04:02;;;;;;;14.63;14.13;;;20.20;99.90;;;;;;5064771;28;20203;-62
2023/09/17 07:06:29;;;;;;;14.13;13.63;;;20.30;99.90;;;;;;5065898;28;20233;-63
2023/09/17 07:08:58;;;;;;;15.17;14.67;;;20.40;99.90;;;;;;5066095;28;20223;-62
2023/09/17 07:11:25;;;;;;;14.50;14.00;;;20.50;99.90;;;;;;5068704;28;20204;-62
2023/09/17 07:13:52;;;;;;;15.53;14.83;;;20.60;99.90;;;;;;5066130;28;20203;-62
2023/09/17 07:16:19;;;;;;;15.10;14.50;;;20.70;99.90;;;;;;5074067;28;20203;-64
2023/09/17 07:18:46;;;;;;;14.27;13.77;;;20.80;99.90;;;;;;5072797;28;20672;-62
2023/09/17 07:21:13;;;;;;;13.97;13.47;;;20.90;99.90;;;;;;5074542;28;20298;-62
2023/09/17 07:23:40;;;;;;;14.07;13.57;;;21.00;99.90;;;;;;5077080;28;20211;-62
2023/09/17 07:26:09;;;;;;;14.00;13.50;;;21.10;99.90;;;;;;5075445;28;20234;-62
2023/09/17 07:28:35;;;;;;;14.63;14.13;;;21.20;99.90;;;;;;5071319;28;20234;-62
2023/09/17 07:31:04;;;;;;;14.50;13.97;;;21.20;99.90;;;;;;5070810;28;20562;-63
2023/09/17 07:33:31;;;;;;;14.87;14.37;;;21.40;99.90;;;;;;5073194;28;20256;-63
2023/09/17 07:35:58;;;;;;;14.17;13.67;;;21.40;99.90;;;;;;5073366;28;20210;-63
2023/09/17 07:38:25;;;;;;;14.27;13.77;;;21.40;99.90;;;;;;5070606;28;20234;-63
2023/09/17 07:40:52;;;;;;;15.07;14.57;;;21.40;99.90;;;;;;5075914;28;20663;-62
2023/09/17 07:43:20;;;;;;;14.43;13.93;;;21.40;99.90;;;;;;5075536;28;20215;-62
2023/09/17 07:45:46;;;;;;;13.53;13.03;;;21.40;99.90;;;;;;5074649;28;20290;-63
2023/09/17 07:48:13;;;;;;;14.67;14.07;;;21.40;99.90;;;;;;5076032;28;20331;-62
2023/09/17 07:50:41;;;;;;;15.37;14.87;;;21.50;99.90;;;;;;5076549;28;20237;-64
2023/09/17 07:53:08;;;;;;;14.83;14.33;;;21.60;99.90;;;;;;5071503;28;20222;-63
2023/09/17 07:55:35;;;;;;;15.17;14.63;;;21.70;99.90;;;;;;5068385;28;20238;-63
2023/09/17 07:58:03;;;;;;;15.17;14.67;;;21.90;99.90;;;;;;5075258;28;20235;-64
2023/09/17 08:00:31;;;;;;;15.27;14.77;;;22.10;99.90;;;;;;5075842;28;20215;-62
2023/09/17 08:02:58;;;;;;;15.10;14.60;;;22.30;99.90;;;;;;5071768;28;20214;-63
2023/09/17 08:05:25;;;;;;;14.17;13.67;;;22.60;99.90;;;;;;5072663;28;20246;-62
2023/09/17 08:07:52;;;;;;;13.67;13.17;;;22.70;99.90;;;;;;5072825;28;20231;-63
2023/09/17 08:10:19;;;;;;;14.67;14.17;;;23.00;99.90;;;;;;5074961;28;20565;-62
2023/09/17 08:12:46;;;;;;;15.20;14.70;;;23.20;99.90;;;;;;5072326;28;20207;-63
2023/09/17 08:15:17;;;;;;;16.00;15.40;;;23.40;99.90;;;;;;5070464;28;20239;-62
2023/09/17 08:17:45;;;;;;;15.10;14.60;;;23.60;99.90;;;;;;5066055;28;20249;-63
2023/09/17 08:20:12;;;;;;;14.73;14.10;;;23.90;99.90;;;;;;5074892;28;20211;-63
2023/09/17 08:22:39;;;;;;;14.30;13.80;;;24.00;99.90;;;;;;5075360;28;20243;-64
2023/09/17 08:25:08;;;;;;;14.40;13.83;;;24.20;99.90;;;;;;5071559;28;20217;-62
2023/09/17 08:27:35;;;;;;;14.43;13.93;;;24.20;99.90;;;;;;5073487;28;20224;-63
2023/09/17 08:30:07;;;;;;;14.03;13.53;;;24.20;99.90;;;;;;5070317;28;20285;-63
2023/09/17 08:32:34;;;;;;;14.50;14.00;;;24.20;99.90;;;;;;5074801;28;20681;-62
2023/09/17 08:35:03;;;;;;;15.10;14.60;;;24.10;99.90;;;;;;5071649;28;20215;-64
2023/09/17 08:37:30;;;;;;;17.93;17.23;;;24.10;99.90;;;;;;5067404;28;20227;-65
2023/09/17 08:39:56;;;;;;;17.80;17.20;;;24.00;99.90;;;;;;5074545;28;20227;-62
2023/09/17 08:42:26;;;;;;;15.00;14.50;;;24.10;99.90;;;;;;5074506;28;20215;-62
2023/09/17 08:44:55;;;;;;;18.77;18.07;;;24.00;99.90;;;;;;5065175;28;20203;-62
2023/09/17 08:47:22;;;;;;;19.47;18.70;;;24.10;99.90;;;;;;5065284;28;20231;-62
2023/09/17 08:49:49;;;;;;;18.57;17.93;;;24.10;99.90;;;;;;5066217;28;20225;-63
2023/09/17 08:52:20;;;;;;;19.57;18.87;;;24.20;99.90;;;;;;5058201;28;20208;-64
2023/09/17 08:54:49;;;;;;;19.00;18.30;;;24.20;99.90;;;;;;5062472;28;20208;-64
2023/09/17 08:57:22;;;;;;;17.90;17.30;;;24.20;99.90;;;;;;5070539;28;20287;-63
2023/09/17 08:59:55;;;;;;;16.87;16.27;;;24.30;99.90;;;;;;5067332;28;20317;-64
2023/09/17 09:02:26;;;;;;;17.70;17.10;;;24.40;99.90;;;;;;5070120;28;20215;-63
2023/09/17 09:04:54;;;;;;;18.30;17.70;;;24.40;99.90;;;;;;5071099;28;20207;-64
2023/09/17 09:07:23;;;;;;;18.63;17.93;;;24.40;99.90;;;;;;5068707;28;20321;-63
2023/09/17 09:09:51;;;;;;;18.70;18.00;;;24.50;99.90;;;;;;5069108;28;20231;-64
2023/09/17 09:12:19;;;;;;;19.60;18.80;;;24.60;99.90;;;;;;5069254;28;20225;-64
2023/09/17 09:14:46;;;;;;;17.33;16.73;;;24.60;99.90;;;;;;5068079;28;20209;-64
2023/09/17 09:17:13;;;;;;;18.03;17.33;;;24.70;99.90;;;;;;5070057;28;20272;-62
2023/09/17 09:19:40;;;;;;;18.73;18.03;;;24.80;99.90;;;;;;5065809;28;20224;-64
2023/09/17 09:22:07;;;;;;;17.83;17.23;;;24.90;99.90;;;;;;5069657;28;20219;-64
2023/09/17 09:24:46;;;;;;;19.20;18.50;;;25.00;99.90;;;;;;5078005;28;20211;-61
2023/09/17 09:27:13;;;;;;;18.00;17.40;;;25.20;99.90;;;;;;5069347;28;20349;-63
2023/09/17 09:29:42;;;;;;;15.00;14.50;;;25.40;99.90;;;;;;5071435;28;20226;-64
2023/09/17 09:32:10;;;;;;;15.67;15.07;;;25.50;99.90;;;;;;5071488;28;20276;-62
2023/09/17 09:34:37;;;;;;;17.08;16.48;;;25.70;99.90;;;;;;5069321;28;20207;-63
2023/09/17 09:37:06;;;;;;;15.45;14.85;;;25.80;99.90;;;;;;5072173;28;20203;-63
2023/09/17 09:39:34;;;;;;;15.30;14.70;;;25.90;99.90;;;;;;5070380;28;20309;-63
2023/09/17 09:42:04;;;;;;;16.58;15.98;;;26.00;99.90;;;;;;5069132;28;20227;-63
2023/09/17 09:44:31;;;;;;;14.13;13.63;;;26.10;99.90;;;;;;5077164;28;20215;-62
2023/09/17 09:47:01;;;;;;;16.05;15.45;;;26.20;99.90;;;;;;5077690;28;20322;-62
2023/09/17 09:49:29;;;;;;;15.55;15.05;;;26.20;99.90;;;;;;5078279;28;20235;-62
2023/09/17 09:51:59;;;;;;;15.73;15.18;;;26.30;99.90;;;;;;5070747;28;20211;-62
2023/09/17 09:54:26;;;;;;;21.55;20.75;;;26.30;99.90;;;;;;5082316;28;20198;-62
2023/09/17 09:56:53;;;;;;;30.00;28.85;;;26.40;99.90;;;;;;5082102;28;20294;-62
2023/09/17 09:59:22;;;;;;;45.42;43.78;;;26.50;99.90;;;;;;5082798;28;20333;-62
2023/09/17 10:01:49;;;;;;;31.43;30.33;;;26.60;99.90;;;;;;5077826;28;20572;-63
2023/09/17 10:04:16;;;;;;;23.33;22.52;;;26.80;99.90;;;;;;5070158;28;20207;-63
2023/09/17 10:06:43;;;;;;;30.90;29.73;;;27.10;99.90;;;;;;5068423;28;20238;-63
2023/09/17 10:09:10;;;;;;;75.80;73.07;;;27.30;99.90;;;;;;5067765;28;20388;-62
2023/09/17 10:11:38;;;;;;;67.18;64.68;;;27.40;99.90;;;;;;5069154;28;20237;-62
2023/09/17 10:14:06;;;;;;;37.22;35.88;;;27.60;99.90;;;;;;5067991;28;20250;-63
2023/09/17 10:16:36;;;;;;;71.57;69.03;;;27.70;99.90;;;;;;5069659;28;20210;-63
2023/09/17 10:19:04;;;;;;;38.05;36.65;;;27.90;99.90;;;;;;5071580;28;20259;-64
2023/09/17 10:21:33;;;;;;;41.70;40.20;;;28.00;99.90;;;;;;5068260;28;20207;-63
2023/09/17 10:24:01;;;;;;;42.42;40.83;;;28.20;99.90;;;;;;5070981;28;20215;-63
2023/09/17 10:26:32;;;;;;;36.28;34.92;;;28.30;99.90;;;;;;5072150;28;20287;-64
2023/09/17 10:29:01;;;;;;;40.80;39.28;;;28.40;99.90;;;;;;5067566;28;20233;-61
2023/09/17 10:31:29;;;;;;;39.28;37.83;;;28.50;99.90;;;;;;5069686;28;20700;-63
2023/09/17 10:33:59;;;;;;;39.83;38.38;;;28.70;99.90;;;;;;5066299;28;20216;-63
2023/09/17 10:36:28;;;;;;;41.75;40.20;;;28.80;99.90;;;;;;5063350;28;20208;-65
2023/09/17 10:38:58;;;;;;;47.40;45.65;;;28.80;99.90;;;;;;5069210;28;20308;-62
2023/09/17 10:41:28;;;;;;;39.40;38.00;;;28.70;99.90;;;;;;5065321;28;20234;-63
2023/09/17 10:43:57;;;;;;;44.33;42.72;;;28.70;99.90;;;;;;5065175;28;20305;-63
2023/09/17 10:46:24;;;;;;;37.92;36.53;;;28.80;99.90;;;;;;5069813;28;20278;-65
2023/09/17 10:48:53;;;;;;;37.50;36.13;;;28.90;99.90;;;;;;5078386;28;20303;-63
2023/09/17 10:51:21;;;;;;;51.28;49.45;;;29.00;99.90;;;;;;5086483;28;20235;-63
2023/09/17 10:53:48;;;;;;;45.40;43.75;;;29.20;99.90;;;;;;5086786;28;20207;-62
2023/09/17 10:56:16;;;;;;;43.55;41.97;;;29.30;99.90;;;;;;5086241;28;20241;-63
2023/09/17 10:58:45;;;;;;;46.50;44.75;;;29.30;99.90;;;;;;5084049;28;20271;-62
2023/09/17 11:01:15;;;;;;;39.58;38.13;;;29.20;99.90;;;;;;5075627;28;20279;-62
2023/09/17 11:03:46;;;;;;;47.28;45.60;;;29.30;99.90;;;;;;5076383;28;20256;-63
2023/09/17 11:06:23;;;;;;;45.75;44.10;;;29.50;99.90;;;;;;5071209;28;20215;-61
2023/09/17 11:08:53;;;;;;;50.15;48.30;;;29.60;99.90;;;;;;5073829;28;20235;-62
2023/09/17 11:11:23;;;;;;;50.83;49.00;;;29.70;99.90;;;;;;5072713;28;20234;-64
2023/09/17 11:13:51;;;;;;;51.25;49.35;;;29.70;99.90;;;;;;5074392;28;20203;-63
2023/09/17 11:16:19;;;;;;;52.97;51.00;;;29.80;99.90;;;;;;5071769;28;20298;-63
2023/09/17 11:19:04;;;;;;;86.57;83.47;;;29.90;99.90;;;;;;5073333;28;20229;-63
2023/09/17 11:21:31;;;;;;;59.38;57.28;;;29.90;99.90;;;;;;5068365;28;20217;-63
2023/09/17 11:23:59;;;;;;;58.03;55.85;;;29.90;99.90;;;;;;5065705;28;20386;-63
2023/09/17 11:26:27;;;;;;;75.70;73.03;;;29.90;99.90;;;;;;5073919;28;20253;-63
2023/09/17 11:28:56;;;;;;;52.28;50.28;;;29.90;99.90;;;;;;5069655;28;20313;-63
2023/09/17 11:31:26;;;;;;;86.75;83.63;;;29.90;99.90;;;;;;5071544;28;20218;-63
2023/09/17 11:33:53;;;;;;;45.38;43.75;;;30.00;99.90;;;;;;5069663;28;20747;-64
2023/09/17 11:36:20;;;;;;;42.33;40.83;;;29.90;99.90;;;;;;5074697;28;20644;-64
2023/09/17 11:38:48;;;;;;;61.67;59.47;;;30.00;99.90;;;;;;5074277;28;20669;-63
2023/09/17 11:41:18;;;;;;;49.92;48.13;;;30.20;99.90;;;;;;5068759;28;20196;-62
2023/09/17 11:43:47;;;;;;;60.13;57.90;;;30.20;99.90;;;;;;5069275;28;20211;-63
2023/09/17 11:46:16;;;;;;;61.08;58.88;;;30.30;99.90;;;;;;5071074;28;20216;-63
2023/09/17 11:48:43;;;;;;;58.88;56.75;;;30.40;99.90;;;;;;5073605;28;20241;-63
2023/09/17 11:51:25;;;;;;;67.82;65.35;;;30.40;99.90;;;;;;5072460;28;20204;-63
2023/09/17 11:53:55;;;;;;;77.75;75.00;;;30.50;99.90;;;;;;5073960;28;20637;-64
2023/09/17 11:56:24;;;;;;;71.97;69.40;;;30.60;99.90;;;;;;5074313;28;20269;-63
2023/09/17 11:59:01;;;;;;;85.13;81.97;;;30.70;99.90;;;;;;5073633;28;20245;-63
2023/09/17 12:01:31;;;;;;;73.38;70.78;;;30.80;99.90;;;;;;5063502;28;20677;-63
2023/09/17 12:03:58;;;;;;;38.42;37.03;;;30.80;99.90;;;;;;5072200;28;20207;-63
2023/09/17 12:06:27;;;;;;;45.75;44.10;;;30.80;99.90;;;;;;5072999;28;20646;-62
2023/09/17 12:08:56;;;;;;;46.40;44.72;;;30.80;99.90;;;;;;5072323;28;20602;-63
2023/09/17 12:11:24;;;;;;;48.25;46.40;;;30.80;99.90;;;;;;5071114;28;20219;-65
2023/09/17 12:13:53;;;;;;;67.72;65.28;;;30.80;99.90;;;;;;5074026;28;20203;-64
2023/09/17 12:16:24;;;;;;;78.00;75.13;;;30.80;99.90;;;;;;5065045;28;20207;-62
2023/09/17 12:18:53;;;;;;;52.83;50.85;;;30.70;99.90;;;;;;5067147;28;20228;-63
2023/09/17 12:21:20;;;;;;;44.15;42.50;;;30.70;99.90;;;;;;5074348;28;20298;-63
2023/09/17 12:23:56;;;;;;;54.88;52.90;;;30.50;99.90;;;;;;5074038;28;20203;-63
2023/09/17 12:26:26;;;;;;;68.03;65.55;;;30.50;99.90;;;;;;5074931;28;20217;-63
2023/09/17 12:28:53;;;;;;;57.22;55.15;;;30.60;99.90;;;;;;5074290;28;20310;-63
2023/09/17 12:31:20;;;;;;;72.53;69.90;;;30.70;99.90;;;;;;5074053;28;20211;-70